Time;durP1;ratioP1;P1;durP2;ratioP2;P2;SDS_P1;SDS_P2;PMS_P1;PMS_P2;Temp;Humidity;BMP_temperature;BMP_pressure;BME280_temperature;BME280_humidity;BME280_pressure;Samples;Min_cycle;Max_cycle;Signal;HPM_P1;HPM_P2
2023/05/03 00:02:15;;;;;;;2.22;0.85;;;;;12.40;102790.00;;;;5052515;28;20202;-75
2023/05/03 00:04:45;;;;;;;2.03;1.33;;;;;12.40;102796.00;;;;5057391;28;20211;-76
2023/05/03 00:07:12;;;;;;;1.52;1.10;;;;;12.40;102786.00;;;;5051414;28;20664;-76
2023/05/03 00:09:39;;;;;;;1.13;1.02;;;;;12.40;102777.00;;;;5058664;28;20199;-76
2023/05/03 00:12:07;;;;;;;1.10;1.00;;;;;12.40;102785.00;;;;5050640;28;20598;-75
2023/05/03 00:14:34;;;;;;;1.63;0.98;;;;;12.40;102786.00;;;;5070026;28;20199;-75
2023/05/03 00:17:01;;;;;;;3.47;1.27;;;;;12.40;102786.00;;;;5058269;28;20702;-75
2023/05/03 00:19:32;;;;;;;1.95;1.30;;;;;12.40;102777.00;;;;5057238;28;20201;-76
2023/05/03 00:22:00;;;;;;;2.15;0.95;;;;;12.30;102782.00;;;;5065340;28;20235;-76
2023/05/03 00:24:28;;;;;;;1.92;1.10;;;;;12.30;102777.00;;;;5059462;28;20684;-76
2023/05/03 00:26:55;;;;;;;2.08;1.00;;;;;12.30;102783.00;;;;5062798;28;20210;-76
2023/05/03 00:29:23;;;;;;;2.10;1.10;;;;;12.30;102785.00;;;;5063689;28;20214;-76
2023/05/03 00:31:50;;;;;;;5.53;1.17;;;;;12.30;102784.00;;;;5051873;28;20214;-76
2023/05/03 00:34:17;;;;;;;2.38;1.00;;;;;12.30;102783.00;;;;5061543;28;20758;-76
2023/05/03 00:36:45;;;;;;;4.80;0.88;;;;;12.30;102785.00;;;;5057770;28;20708;-76
2023/05/03 00:39:13;;;;;;;1.95;1.30;;;;;12.20;102775.00;;;;5061108;28;20191;-75
2023/05/03 00:41:41;;;;;;;1.95;1.30;;;;;12.20;102785.00;;;;5055661;28;20245;-76
2023/05/03 00:44:08;;;;;;;1.65;1.23;;;;;12.20;102781.00;;;;5060430;28;20227;-76
2023/05/03 00:46:36;;;;;;;2.58;1.00;;;;;12.20;102777.00;;;;5053153;28;20214;-76
2023/05/03 00:49:03;;;;;;;2.00;0.93;;;;;12.20;102778.00;;;;5057489;28;20715;-76
2023/05/03 00:51:32;;;;;;;3.45;1.30;;;;;12.20;102785.00;;;;5057064;28;20584;-76
2023/05/03 00:53:59;;;;;;;3.33;1.10;;;;;12.10;102777.00;;;;5069482;28;20680;-76
2023/05/03 00:56:29;;;;;;;1.45;1.25;;;;;12.10;102784.00;;;;5064662;28;20199;-76
2023/05/03 00:58:56;;;;;;;2.80;0.80;;;;;12.10;102776.00;;;;5057159;28;20200;-75
2023/05/03 01:01:24;;;;;;;2.50;1.27;;;;;12.10;102777.00;;;;5054913;28;20218;-75
2023/05/03 01:03:52;;;;;;;1.42;1.15;;;;;12.10;102782.00;;;;5052094;28;20585;-75
2023/05/03 01:06:26;;;;;;;3.20;1.42;;;;;12.00;102781.00;;;;5060122;28;20187;-75
2023/05/03 01:08:59;;;;;;;1.90;0.90;;;;;12.00;102771.00;;;;5058416;28;20286;-76
2023/05/03 01:11:42;;;;;;;1.83;1.25;;;;;11.90;102785.00;;;;5049994;28;20191;-76
2023/05/03 01:14:20;;;;;;;7.03;1.15;;;;;12.00;102775.00;;;;5049250;28;20199;-75
2023/05/03 01:16:53;;;;;;;2.50;1.20;;;;;12.00;102774.00;;;;5055402;28;20191;-75
2023/05/03 01:19:29;;;;;;;4.93;1.60;;;;;11.90;102785.00;;;;5055128;28;20199;-75
2023/05/03 01:22:08;;;;;;;3.45;1.40;;;;;11.90;102777.00;;;;5055955;28;20195;-75
2023/05/03 01:24:38;;;;;;;3.08;1.40;;;;;12.00;102777.00;;;;5049732;28;20229;-75
2023/05/03 01:27:08;;;;;;;2.78;1.23;;;;;11.90;102783.00;;;;5057487;28;20249;-75
2023/05/03 01:29:35;;;;;;;3.17;1.15;;;;;11.90;102774.00;;;;5062471;28;20280;-76
2023/05/03 01:32:12;;;;;;;3.03;1.80;;;;;11.90;102774.00;;;;5058377;28;20229;-75
2023/05/03 01:34:49;;;;;;;1.48;1.30;;;;;11.90;102772.00;;;;5051420;28;20201;-76
2023/05/03 01:37:18;;;;;;;5.13;2.05;;;;;11.90;102779.00;;;;5049283;28;20286;-76
2023/05/03 01:39:51;;;;;;;2.55;1.48;;;;;11.90;102763.00;;;;5051406;28;20200;-76
2023/05/03 01:42:22;;;;;;;2.92;1.38;;;;;11.90;102762.00;;;;5048835;28;20569;-77
2023/05/03 01:44:50;;;;;;;3.08;1.88;;;;;11.90;102762.00;;;;5051948;28;20341;-76
2023/05/03 01:47:18;;;;;;;7.22;2.38;;;;;11.90;102763.00;;;;5066826;28;20684;-77
2023/05/03 01:49:45;;;;;;;3.88;2.35;;;;;11.80;102771.00;;;;5066619;28;20203;-77
2023/05/03 01:52:12;;;;;;;4.75;1.55;;;;;11.80;102781.00;;;;5067013;28;20207;-77
2023/05/03 01:54:39;;;;;;;2.10;1.90;;;;;11.80;102776.00;;;;5067635;28;20214;-77
2023/05/03 01:57:07;;;;;;;3.50;2.40;;;;;11.80;102766.00;;;;5048412;28;20199;-76
2023/05/03 01:59:35;;;;;;;2.15;1.67;;;;;11.80;102768.00;;;;5052216;28;20201;-77
2023/05/03 02:02:02;;;;;;;1.88;1.52;;;;;11.80;102767.00;;;;5068019;28;20195;-77
2023/05/03 02:04:30;;;;;;;3.20;1.85;;;;;11.80;102764.00;;;;5051002;28;20234;-77
2023/05/03 02:06:57;;;;;;;4.43;1.92;;;;;11.80;102768.00;;;;5067795;28;20651;-77
2023/05/03 02:09:24;;;;;;;3.90;1.25;;;;;11.70;102771.00;;;;5059330;28;20206;-77
2023/05/03 02:11:52;;;;;;;2.70;1.30;;;;;11.70;102763.00;;;;5054463;28;20195;-77
2023/05/03 02:14:19;;;;;;;2.47;1.73;;;;;11.70;102757.00;;;;5067789;28;20199;-76
2023/05/03 02:16:48;;;;;;;2.22;1.30;;;;;11.70;102757.00;;;;5061944;28;20211;-77
2023/05/03 02:19:15;;;;;;;3.60;1.30;;;;;11.70;102759.00;;;;5047483;28;20325;-77
2023/05/03 02:21:43;;;;;;;2.45;1.17;;;;;11.70;102750.00;;;;5049067;28;20203;-77
2023/05/03 02:24:10;;;;;;;4.32;1.30;;;;;11.70;102750.00;;;;5047703;28;20232;-77
2023/05/03 02:26:37;;;;;;;2.65;1.15;;;;;11.70;102746.00;;;;5048822;28;20265;-77
2023/05/03 02:29:06;;;;;;;3.15;1.35;;;;;11.60;102743.00;;;;5060396;28;20227;-77
2023/05/03 02:31:33;;;;;;;2.33;1.20;;;;;11.60;102739.00;;;;5068500;28;20228;-77
2023/05/03 02:34:02;;;;;;;1.63;1.08;;;;;11.60;102739.00;;;;5067203;28;20237;-77
2023/05/03 02:36:29;;;;;;;4.75;1.85;;;;;11.60;102728.00;;;;5068600;28;20253;-76
2023/05/03 02:38:57;;;;;;;1.95;1.20;;;;;11.60;102726.00;;;;5061250;28;20191;-77
2023/05/03 02:41:24;;;;;;;2.35;1.02;;;;;11.60;102723.00;;;;5056740;28;20195;-77
2023/05/03 02:43:52;;;;;;;2.67;1.50;;;;;11.60;102722.00;;;;5065489;28;20223;-77
2023/05/03 02:46:19;;;;;;;4.07;1.30;;;;;11.60;102722.00;;;;5061724;28;20205;-77
2023/05/03 02:48:46;;;;;;;1.33;0.95;;;;;11.60;102717.00;;;;5065598;28;20191;-77
2023/05/03 02:51:15;;;;;;;2.33;0.95;;;;;11.50;102717.00;;;;5048419;28;20191;-77
2023/05/03 02:53:42;;;;;;;4.25;1.02;;;;;11.60;102719.00;;;;5051252;28;20199;-77
2023/05/03 02:56:09;;;;;;;2.35;1.45;;;;;11.50;102717.00;;;;5059875;28;20214;-74
2023/05/03 02:58:37;;;;;;;3.70;1.00;;;;;11.50;102718.00;;;;5067251;28;20616;-74
2023/05/03 03:01:04;;;;;;;3.08;1.27;;;;;11.50;102728.00;;;;5068185;28;20199;-77
2023/05/03 03:03:31;;;;;;;3.67;1.42;;;;;11.50;102731.00;;;;5072223;28;20213;-77
2023/05/03 03:05:59;;;;;;;3.63;1.38;;;;;11.50;102727.00;;;;5059417;28;20215;-77
2023/05/03 03:08:27;;;;;;;1.33;1.13;;;;;11.50;102730.00;;;;5055741;28;20590;-77
2023/05/03 03:10:55;;;;;;;2.35;1.10;;;;;11.50;102737.00;;;;5066128;28;20202;-77
2023/05/03 03:13:22;;;;;;;2.25;1.13;;;;;11.50;102741.00;;;;5071613;28;20749;-77
2023/05/03 03:15:49;;;;;;;3.35;1.60;;;;;11.50;102735.00;;;;5070826;28;20198;-77
2023/05/03 03:18:17;;;;;;;4.43;1.38;;;;;11.50;102738.00;;;;5065853;28;20199;-77
2023/05/03 03:20:44;;;;;;;2.90;1.42;;;;;11.50;102733.00;;;;5071036;28;20208;-77
2023/05/03 03:23:11;;;;;;;2.55;1.35;;;;;11.50;102746.00;;;;5071453;28;20199;-77
2023/05/03 03:25:40;;;;;;;4.38;1.23;;;;;11.40;102733.00;;;;5070621;28;20309;-76
2023/05/03 03:28:08;;;;;;;2.42;1.05;;;;;11.40;102732.00;;;;5069563;28;20198;-76
2023/05/03 03:30:35;;;;;;;2.67;1.27;;;;;11.40;102734.00;;;;5062749;28;20223;-77
2023/05/03 03:33:02;;;;;;;1.60;1.08;;;;;11.40;102733.00;;;;5058456;28;20230;-76
2023/05/03 03:35:30;;;;;;;2.83;1.20;;;;;11.40;102739.00;;;;5063504;28;20687;-76
2023/05/03 03:37:58;;;;;;;2.63;1.13;;;;;11.40;102738.00;;;;5070993;28;20580;-77
2023/05/03 03:40:25;;;;;;;1.45;1.20;;;;;11.40;102740.00;;;;5060153;28;20200;-76
2023/05/03 03:42:54;;;;;;;4.60;1.45;;;;;11.30;102735.00;;;;5062230;28;20203;-77
2023/05/03 03:45:21;;;;;;;2.15;1.05;;;;;11.30;102734.00;;;;5070745;28;20708;-76
2023/05/03 03:47:48;;;;;;;2.90;1.00;;;;;11.30;102745.00;;;;5063018;28;20199;-77
2023/05/03 03:50:16;;;;;;;1.83;0.93;;;;;11.30;102744.00;;;;5067264;28;20211;-76
2023/05/03 03:52:43;;;;;;;2.80;1.50;;;;;11.30;102741.00;;;;5051501;28;20614;-76
2023/05/03 03:55:11;;;;;;;2.33;1.15;;;;;11.20;102749.00;;;;5050912;28;20200;-76
2023/05/03 03:57:39;;;;;;;1.67;1.23;;;;;11.20;102751.00;;;;5054854;28;20245;-77
2023/05/03 04:00:10;;;;;;;1.13;0.98;;;;;11.10;102749.00;;;;5057244;28;20214;-76
2023/05/03 04:02:38;;;;;;;2.65;1.15;;;;;11.10;102746.00;;;;5051042;28;20212;-77
2023/05/03 04:05:06;;;;;;;1.92;1.13;;;;;11.10;102764.00;;;;5064618;28;20230;-77
2023/05/03 04:07:34;;;;;;;2.05;1.33;;;;;11.00;102757.00;;;;5054085;28;20287;-77
2023/05/03 04:10:01;;;;;;;1.90;1.05;;;;;11.00;102756.00;;;;5056225;28;20201;-76
2023/05/03 04:12:29;;;;;;;3.55;1.30;;;;;10.90;102751.00;;;;5053695;28;20196;-76
2023/05/03 04:14:56;;;;;;;3.78;1.55;;;;;10.90;102748.00;;;;5054667;28;20211;-76
2023/05/03 04:17:25;;;;;;;2.67;1.45;;;;;10.90;102757.00;;;;5050664;28;20196;-76
2023/05/03 04:19:52;;;;;;;1.40;1.30;;;;;10.90;102751.00;;;;5056307;28;20187;-76
2023/05/03 04:22:19;;;;;;;1.90;1.02;;;;;10.80;102763.00;;;;5052072;28;20195;-76
2023/05/03 04:24:46;;;;;;;3.63;1.30;;;;;10.80;102764.00;;;;5050906;28;20241;-77
2023/05/03 04:27:16;;;;;;;2.80;1.45;;;;;10.80;102779.00;;;;5050385;28;20195;-76
2023/05/03 04:29:44;;;;;;;2.25;1.60;;;;;10.80;102780.00;;;;5061822;28;20215;-76
2023/05/03 04:32:13;;;;;;;1.83;1.45;;;;;10.80;102773.00;;;;5049676;28;20764;-76
2023/05/03 04:34:42;;;;;;;3.97;1.52;;;;;10.70;102775.00;;;;5050966;28;20204;-76
2023/05/03 04:37:09;;;;;;;3.45;2.03;;;;;10.80;102782.00;;;;5051185;28;20691;-76
2023/05/03 04:39:36;;;;;;;4.47;2.05;;;;;10.80;102790.00;;;;5053458;28;20204;-76
2023/05/03 04:42:04;;;;;;;2.08;1.02;;;;;10.70;102792.00;;;;5058057;28;20202;-76
2023/05/03 04:44:32;;;;;;;3.30;1.45;;;;;10.80;102800.00;;;;5070342;28;20246;-77
2023/05/03 04:46:59;;;;;;;2.15;1.50;;;;;10.80;102802.00;;;;5050712;28;20573;-76
2023/05/03 04:49:26;;;;;;;3.67;1.27;;;;;10.80;102808.00;;;;5050604;28;20198;-77
2023/05/03 04:51:55;;;;;;;3.88;1.95;;;;;10.80;102807.00;;;;5056036;28;20210;-76
2023/05/03 04:54:22;;;;;;;2.05;1.40;;;;;10.80;102800.00;;;;5069962;28;20199;-77
2023/05/03 04:56:50;;;;;;;3.78;1.80;;;;;10.80;102805.00;;;;5050572;28;20696;-76
2023/05/03 04:59:17;;;;;;;1.67;1.20;;;;;10.90;102804.00;;;;5068192;28;20734;-76
2023/05/03 05:01:44;;;;;;;3.70;1.58;;;;;10.90;102800.00;;;;5065391;28;20198;-76
2023/05/03 05:04:12;;;;;;;4.18;1.60;;;;;10.90;102805.00;;;;5048834;28;20200;-77
2023/05/03 05:06:39;;;;;;;2.75;1.27;;;;;11.00;102797.00;;;;5050222;28;20226;-76
2023/05/03 05:09:19;;;;;;;2.28;1.45;;;;;11.00;102800.00;;;;5051569;28;20208;-76
2023/05/03 05:11:47;;;;;;;3.40;1.38;;;;;11.10;102803.00;;;;5053251;28;20221;-76
2023/05/03 05:14:14;;;;;;;2.95;1.58;;;;;11.10;102800.00;;;;5048918;28;20211;-76
2023/05/03 05:16:41;;;;;;;1.85;1.40;;;;;11.20;102803.00;;;;5064230;28;20211;-76
2023/05/03 05:19:09;;;;;;;4.53;2.10;;;;;11.20;102813.00;;;;5050339;28;20187;-76
2023/05/03 05:21:36;;;;;;;5.68;1.80;;;;;11.30;102808.00;;;;5059598;28;20217;-76
2023/05/03 05:24:04;;;;;;;2.78;1.55;;;;;11.30;102810.00;;;;5058879;28;20203;-76
2023/05/03 05:26:32;;;;;;;1.60;1.05;;;;;11.40;102820.00;;;;5048516;28;20724;-77
2023/05/03 05:29:00;;;;;;;1.60;1.00;;;;;11.40;102813.00;;;;5055881;28;20198;-76
2023/05/03 05:31:27;;;;;;;1.13;1.00;;;;;11.50;102807.00;;;;5066961;28;20217;-76
2023/05/03 05:33:54;;;;;;;4.55;1.48;;;;;11.50;102807.00;;;;5060743;28;20215;-77
2023/05/03 05:36:22;;;;;;;2.70;1.15;;;;;11.60;102810.00;;;;5068920;28;20249;-77
2023/05/03 05:38:49;;;;;;;2.38;1.42;;;;;11.70;102816.00;;;;5065417;28;20191;-77
2023/05/03 05:41:16;;;;;;;1.77;1.17;;;;;11.70;102814.00;;;;5052186;28;20202;-77
2023/05/03 05:43:45;;;;;;;2.35;1.23;;;;;11.80;102817.00;;;;5050138;28;20204;-77
2023/05/03 05:46:14;;;;;;;2.97;1.10;;;;;11.90;102809.00;;;;5055659;28;20234;-77
2023/05/03 05:48:42;;;;;;;3.42;1.23;;;;;12.00;102817.00;;;;5049611;28;20183;-77
2023/05/03 05:51:09;;;;;;;2.00;1.20;;;;;12.00;102821.00;;;;5049530;28;20528;-77
2023/05/03 05:53:37;;;;;;;4.97;1.67;;;;;12.10;102821.00;;;;5054441;28;20568;-77
2023/05/03 05:56:07;;;;;;;2.28;1.20;;;;;12.20;102818.00;;;;5069350;28;20644;-77
2023/05/03 05:58:36;;;;;;;3.53;1.40;;;;;12.30;102820.00;;;;5056780;28;20280;-77
2023/05/03 06:01:05;;;;;;;1.40;0.95;;;;;12.40;102820.00;;;;5048624;28;20203;-78
2023/05/03 06:03:34;;;;;;;3.70;0.95;;;;;12.40;102825.00;;;;5059149;28;20199;-77
2023/05/03 06:06:01;;;;;;;3.10;1.17;;;;;12.50;102816.00;;;;5049763;28;20227;-77
2023/05/03 06:08:29;;;;;;;2.65;1.17;;;;;12.60;102823.00;;;;5058587;28;20202;-77
2023/05/03 06:10:56;;;;;;;2.38;1.45;;;;;12.70;102830.00;;;;5053789;28;20200;-75
2023/05/03 06:13:24;;;;;;;4.18;1.33;;;;;12.80;102828.00;;;;5061942;28;20676;-76
2023/05/03 06:15:53;;;;;;;1.40;1.08;;;;;12.90;102825.00;;;;5048953;28;20195;-75
2023/05/03 06:18:22;;;;;;;3.28;1.30;;;;;12.90;102822.00;;;;5057605;28;20199;-76
2023/05/03 06:20:49;;;;;;;3.47;1.30;;;;;13.10;102822.00;;;;5054261;28;20199;-76
2023/05/03 06:23:17;;;;;;;2.63;1.27;;;;;13.10;102829.00;;;;5048829;28;20210;-76
2023/05/03 06:25:47;;;;;;;2.30;1.10;;;;;13.20;102820.00;;;;5051222;28;20214;-76
2023/05/03 06:28:14;;;;;;;4.32;1.35;;;;;13.30;102808.00;;;;5061824;28;20302;-77
2023/05/03 06:30:41;;;;;;;1.75;1.30;;;;;13.40;102824.00;;;;5054676;28;20215;-78
2023/05/03 06:33:12;;;;;;;2.28;1.20;;;;;13.50;102814.00;;;;5048815;28;20226;-77
2023/05/03 06:35:41;;;;;;;3.17;1.13;;;;;13.50;102814.00;;;;5049101;28;20200;-77
2023/05/03 06:38:10;;;;;;;4.88;1.50;;;;;13.60;102818.00;;;;5063231;28;20242;-76
2023/05/03 06:40:40;;;;;;;2.92;1.27;;;;;13.70;102820.00;;;;5054974;28;20188;-76
2023/05/03 06:43:07;;;;;;;1.55;1.13;;;;;13.80;102805.00;;;;5064322;28;20559;-77
2023/05/03 06:45:35;;;;;;;1.40;1.00;;;;;13.90;102818.00;;;;5051726;28;20723;-77
2023/05/03 06:48:11;;;;;;;2.97;1.42;;;;;13.90;102814.00;;;;5055122;28;20669;-76
2023/05/03 06:50:43;;;;;;;3.20;1.10;;;;;14.10;102815.00;;;;5058742;28;20209;-76
2023/05/03 06:53:11;;;;;;;2.75;1.08;;;;;14.10;102818.00;;;;5051549;28;20207;-77
2023/05/03 06:55:38;;;;;;;4.20;1.40;;;;;14.20;102816.00;;;;5064452;28;20285;-77
2023/05/03 06:58:08;;;;;;;2.17;1.10;;;;;14.30;102812.00;;;;5051130;28;20202;-77
2023/05/03 07:00:37;;;;;;;2.13;0.80;;;;;14.40;102813.00;;;;5060312;28;20668;-77
2023/05/03 07:03:05;;;;;;;4.90;0.90;;;;;14.40;102813.00;;;;5038871;28;20200;-77
2023/05/03 07:05:34;;;;;;;1.67;1.10;;;;;14.60;102815.00;;;;5048877;28;20269;-77
2023/05/03 07:08:03;;;;;;;1.30;0.90;;;;;14.60;102811.00;;;;5049254;28;20650;-76
2023/05/03 07:10:33;;;;;;;2.00;1.40;;;;;14.70;102804.00;;;;5052909;28;20665;-77
2023/05/03 07:13:00;;;;;;;2.10;1.10;;;;;14.80;102804.00;;;;5055523;28;20207;-77
2023/05/03 07:15:28;;;;;;;1.77;0.80;;;;;14.90;102805.00;;;;5052060;28;20282;-76
2023/05/03 07:17:57;;;;;;;2.80;1.20;;;;;15.00;102808.00;;;;5047182;28;20684;-76
2023/05/03 07:20:25;;;;;;;1.50;0.75;;;;;15.10;102800.00;;;;5048052;28;20588;-77
2023/05/03 07:22:52;;;;;;;3.30;1.55;;;;;15.20;102794.00;;;;5055213;28;20199;-77
2023/05/03 07:25:21;;;;;;;3.35;1.50;;;;;15.20;102790.00;;;;5067468;28;20688;-77
2023/05/03 07:27:48;;;;;;;2.03;1.02;;;;;15.30;102789.00;;;;5062134;28;20218;-77
2023/05/03 07:30:16;;;;;;;3.38;1.10;;;;;15.40;102791.00;;;;5055807;28;20220;-76
2023/05/03 07:32:43;;;;;;;3.00;1.38;;;;;15.50;102795.00;;;;5047963;28;20663;-76
2023/05/03 07:35:11;;;;;;;1.60;1.10;;;;;15.50;102782.00;;;;5048889;28;20199;-76
2023/05/03 07:37:38;;;;;;;3.05;1.10;;;;;15.60;102777.00;;;;5047523;28;20731;-76
2023/05/03 07:40:07;;;;;;;2.85;1.13;;;;;15.70;102773.00;;;;5047026;28;20198;-76
2023/05/03 07:42:35;;;;;;;1.13;0.63;;;;;15.80;102762.00;;;;5047517;28;20200;-77
2023/05/03 07:45:03;;;;;;;1.38;0.90;;;;;15.90;102762.00;;;;5047723;28;20211;-77
2023/05/03 07:47:31;;;;;;;1.90;0.90;;;;;16.00;102763.00;;;;5047825;28;20228;-76
2023/05/03 07:49:58;;;;;;;2.08;0.90;;;;;16.10;102767.00;;;;5057279;28;20202;-77
2023/05/03 07:52:26;;;;;;;2.90;0.80;;;;;16.20;102758.00;;;;5062416;28;20203;-77
2023/05/03 07:54:53;;;;;;;3.50;1.10;;;;;16.30;102772.00;;;;5050790;28;20262;-76
2023/05/03 07:57:22;;;;;;;2.55;0.95;;;;;16.40;102767.00;;;;5050088;28;20210;-76
2023/05/03 07:59:51;;;;;;;1.38;0.70;;;;;16.50;102767.00;;;;5060626;28;20207;-76
2023/05/03 08:02:18;;;;;;;1.58;0.70;;;;;16.60;102768.00;;;;5058192;28;20203;-77
2023/05/03 08:04:46;;;;;;;0.90;0.63;;;;;16.70;102766.00;;;;5051155;28;20207;-77
2023/05/03 08:07:13;;;;;;;2.40;0.63;;;;;16.80;102764.00;;;;5047733;28;20226;-77
2023/05/03 08:09:41;;;;;;;2.42;0.70;;;;;16.80;102761.00;;;;5054109;28;20783;-77
2023/05/03 08:12:08;;;;;;;1.35;0.60;;;;;17.00;102758.00;;;;5053173;28;20199;-78
2023/05/03 08:14:36;;;;;;;3.92;0.70;;;;;17.10;102753.00;;;;5056705;28;20820;-77
2023/05/03 08:17:05;;;;;;;0.95;0.70;;;;;17.20;102752.00;;;;5058214;28;20206;-78
2023/05/03 08:19:33;;;;;;;1.98;0.60;;;;;17.30;102750.00;;;;5059753;28;20584;-78
2023/05/03 08:22:00;;;;;;;2.92;1.17;;;;;17.40;102757.00;;;;5060013;28;20264;-77
2023/05/03 08:24:27;;;;;;;1.65;1.00;;;;;17.50;102756.00;;;;5060583;28;20204;-77
2023/05/03 08:26:55;;;;;;;3.10;0.93;;;;;17.60;102756.00;;;;5055709;28;20219;-78
2023/05/03 08:29:22;;;;;;;1.92;1.00;;;;;17.70;102746.00;;;;5060002;28;20207;-77
2023/05/03 08:31:49;;;;;;;1.98;0.90;;;;;17.80;102735.00;;;;5055717;28;20199;-78
2023/05/03 08:34:18;;;;;;;2.25;0.80;;;;;17.90;102738.00;;;;5049523;28;20230;-77
2023/05/03 08:36:45;;;;;;;2.05;0.80;;;;;18.00;102738.00;;;;5055785;28;20211;-76
2023/05/03 08:39:14;;;;;;;3.58;0.80;;;;;18.10;102732.00;;;;5057449;28;20201;-77
2023/05/03 08:41:41;;;;;;;3.28;0.90;;;;;18.20;102732.00;;;;5050336;28;20287;-77
2023/05/03 08:44:13;;;;;;;1.75;0.80;;;;;18.20;102738.00;;;;5049607;28;20606;-77
2023/05/03 08:46:43;;;;;;;0.95;0.70;;;;;18.30;102747.00;;;;5052156;28;20237;-78
2023/05/03 08:49:12;;;;;;;1.30;0.68;;;;;18.50;102744.00;;;;5054453;28;20214;-78
2023/05/03 08:51:42;;;;;;;1.38;0.70;;;;;18.60;102746.00;;;;5054346;28;20744;-77
2023/05/03 08:54:10;;;;;;;4.22;1.00;;;;;18.60;102745.00;;;;5047738;28;20195;-78
2023/05/03 08:56:41;;;;;;;2.05;0.63;;;;;18.70;102747.00;;;;5051430;28;20203;-76
2023/05/03 08:59:08;;;;;;;1.95;0.90;;;;;18.80;102757.00;;;;5056478;28;20612;-77
2023/05/03 09:01:36;;;;;;;2.45;0.80;;;;;18.90;102751.00;;;;5062775;28;20534;-78
2023/05/03 09:04:04;;;;;;;2.00;0.70;;;;;18.90;102750.00;;;;5047527;28;20187;-77
2023/05/03 09:06:32;;;;;;;3.90;0.80;;;;;19.00;102753.00;;;;5050641;28;20688;-78
2023/05/03 09:09:04;;;;;;;1.45;0.80;;;;;19.00;102749.00;;;;5067550;28;20195;-78
2023/05/03 09:11:32;;;;;;;2.30;0.68;;;;;19.10;102745.00;;;;5049306;28;20196;-78
2023/05/03 09:14:10;;;;;;;2.00;0.98;;;;;19.20;102750.00;;;;5048999;28;20210;-78
2023/05/03 09:16:38;;;;;;;1.10;0.80;;;;;19.30;102758.00;;;;5048476;28;20991;-78
2023/05/03 09:19:08;;;;;;;3.42;0.60;;;;;19.40;102759.00;;;;5067128;28;20202;-78
2023/05/03 09:21:36;;;;;;;1.88;0.90;;;;;19.40;102767.00;;;;5061396;28;20203;-78
2023/05/03 09:24:13;;;;;;;1.55;0.85;;;;;19.40;102760.00;;;;5069267;28;20195;-78
2023/05/03 09:26:41;;;;;;;1.60;1.05;;;;;19.60;102758.00;;;;5057970;28;20219;-79
2023/05/03 09:29:09;;;;;;;2.17;1.20;;;;;19.70;102760.00;;;;5048618;28;20199;-79
2023/05/03 09:31:37;;;;;;;2.15;0.77;;;;;19.80;102754.00;;;;5059170;28;20225;-79
2023/05/03 09:34:22;;;;;;;1.77;0.82;;;;;19.80;102758.00;;;;5069017;28;20226;-79
2023/05/03 09:36:49;;;;;;;1.88;0.88;;;;;20.00;102774.00;;;;5055043;28;20287;-78
2023/05/03 09:39:19;;;;;;;1.65;0.80;;;;;20.00;102764.00;;;;5049568;28;20202;-79
2023/05/03 09:41:47;;;;;;;1.15;0.73;;;;;20.10;102774.00;;;;5045165;28;20196;-80
2023/05/03 09:44:14;;;;;;;3.33;0.82;;;;;20.20;102766.00;;;;5057848;28;20207;-78
2023/05/03 09:47:02;;;;;;;1.02;0.68;;;;;20.20;102766.00;;;;5046897;28;20228;-78
2023/05/03 09:49:32;;;;;;;2.28;0.95;;;;;20.40;102766.00;;;;5048026;28;20198;-79
2023/05/03 09:52:00;;;;;;;3.65;1.27;;;;;20.40;102760.00;;;;5051954;28;20196;-79
2023/05/03 09:54:30;;;;;;;2.70;0.90;;;;;20.50;102766.00;;;;5050937;28;20200;-78
2023/05/03 09:56:57;;;;;;;2.40;1.02;;;;;20.60;102765.00;;;;5057404;28;20202;-79
2023/05/03 09:59:25;;;;;;;1.27;0.98;;;;;20.70;102758.00;;;;5058357;28;20309;-78
2023/05/03 10:01:56;;;;;;;1.65;1.13;;;;;20.70;102761.00;;;;5058069;28;20198;-79
2023/05/03 10:04:26;;;;;;;2.10;0.85;;;;;20.80;102764.00;;;;5052506;28;20240;-79
2023/05/03 10:06:59;;;;;;;1.70;0.70;;;;;20.90;102768.00;;;;5064045;28;20227;-79
2023/05/03 10:09:34;;;;;;;2.03;0.88;;;;;20.90;102752.00;;;;5069272;28;20191;-79
2023/05/03 10:12:04;;;;;;;2.03;0.98;;;;;21.00;102753.00;;;;5061954;28;20199;-78
2023/05/03 10:14:32;;;;;;;3.10;0.85;;;;;21.10;102748.00;;;;5048458;28;21208;-78
2023/05/03 10:17:03;;;;;;;1.65;1.10;;;;;21.10;102737.00;;;;5049299;28;20270;-79
2023/05/03 10:19:37;;;;;;;2.97;0.90;;;;;21.20;102757.00;;;;5049838;28;20596;-79
2023/05/03 10:22:06;;;;;;;1.35;0.98;;;;;21.30;102750.00;;;;5058202;28;20198;-79
2023/05/03 10:24:36;;;;;;;2.33;1.20;;;;;21.30;102744.00;;;;5059138;28;20194;-78
2023/05/03 10:27:07;;;;;;;4.65;1.20;;;;;21.40;102748.00;;;;5065146;28;20222;-79
2023/05/03 10:29:52;;;;;;;2.10;1.15;;;;;21.40;102743.00;;;;5068421;28;20692;-78
2023/05/03 10:32:31;;;;;;;2.28;1.05;;;;;21.50;102737.00;;;;5051048;28;20192;-78
2023/05/03 10:35:00;;;;;;;2.60;1.70;;;;;21.60;102735.00;;;;5061573;28;20582;-78
2023/05/03 10:37:28;;;;;;;4.57;1.33;;;;;21.70;102734.00;;;;5054042;28;20191;-79
2023/05/03 10:40:05;;;;;;;2.78;1.67;;;;;21.70;102735.00;;;;5045706;28;20191;-77
2023/05/03 10:42:32;;;;;;;2.28;1.33;;;;;21.80;102737.00;;;;5050048;28;20203;-78
2023/05/03 10:45:02;;;;;;;1.90;1.20;;;;;21.80;102734.00;;;;5054602;28;20570;-78
2023/05/03 10:47:29;;;;;;;2.00;1.35;;;;;21.90;102744.00;;;;5052261;28;20223;-77
2023/05/03 10:50:25;;;;;;;2.70;1.10;;;;;21.80;102747.00;;;;5051714;28;20558;-77
2023/05/03 10:52:53;;;;;;;2.00;1.10;;;;;21.90;102734.00;;;;5060704;28;20195;-77
2023/05/03 10:55:24;;;;;;;1.42;1.10;;;;;21.90;102728.00;;;;5067282;28;20198;-78
2023/05/03 10:57:55;;;;;;;4.15;1.92;;;;;22.00;102723.00;;;;5065466;28;20237;-78
2023/05/03 11:00:33;;;;;;;2.05;1.10;;;;;22.00;102729.00;;;;5062234;28;20206;-78
2023/05/03 11:03:13;;;;;;;5.18;1.27;;;;;22.00;102725.00;;;;5061744;28;20203;-77
2023/05/03 11:05:41;;;;;;;1.52;1.33;;;;;22.10;102728.00;;;;5053472;28;20198;-78
2023/05/03 11:08:11;;;;;;;1.58;1.13;;;;;22.20;102728.00;;;;5058190;28;20223;-78
2023/05/03 11:10:41;;;;;;;1.10;1.00;;;;;22.30;102726.00;;;;5066517;28;20640;-78
2023/05/03 11:13:08;;;;;;;2.53;1.40;;;;;22.30;102716.00;;;;5061440;28;20717;-78
2023/05/03 11:15:36;;;;;;;2.47;1.13;;;;;22.40;102715.00;;;;5047795;28;20203;-78
2023/05/03 11:18:04;;;;;;;2.30;1.40;;;;;22.50;102723.00;;;;5057155;28;20672;-78
2023/05/03 11:20:32;;;;;;;1.65;1.10;;;;;22.40;102714.00;;;;5051562;28;20249;-78
2023/05/03 11:22:59;;;;;;;4.07;1.60;;;;;22.50;102703.00;;;;5066948;28;20219;-77
2023/05/03 11:25:26;;;;;;;3.45;1.50;;;;;22.40;102695.00;;;;5061731;28;20273;-78
2023/05/03 11:27:55;;;;;;;2.97;1.35;;;;;22.40;102697.00;;;;5053403;28;20227;-78
2023/05/03 11:30:23;;;;;;;3.65;1.17;;;;;22.40;102697.00;;;;5062201;28;20219;-78
2023/05/03 11:32:50;;;;;;;2.45;1.20;;;;;22.50;102694.00;;;;5060376;28;20672;-78
2023/05/03 11:35:18;;;;;;;2.33;1.33;;;;;22.50;102688.00;;;;5069194;28;20206;-79
2023/05/03 11:37:46;;;;;;;1.70;1.08;;;;;22.50;102695.00;;;;5054073;28;20195;-81
2023/05/03 11:40:17;;;;;;;3.08;1.35;;;;;22.50;102691.00;;;;5058862;28;20469;-79
2023/05/03 11:42:57;;;;;;;3.50;2.05;;;;;22.40;102693.00;;;;5058217;28;20286;-79
2023/05/03 11:45:26;;;;;;;1.80;1.08;;;;;22.60;102685.00;;;;5056216;28;20310;-77
2023/05/03 11:47:54;;;;;;;3.22;1.00;;;;;22.60;102690.00;;;;5063685;28;20226;-78
2023/05/03 11:50:43;;;;;;;1.42;1.08;;;;;22.60;102684.00;;;;5051114;28;20204;-77
2023/05/03 11:53:10;;;;;;;2.50;1.40;;;;;22.70;102682.00;;;;5050493;28;20202;-77
2023/05/03 11:55:39;;;;;;;2.42;1.20;;;;;22.70;102682.00;;;;5059019;28;20195;-77
2023/05/03 11:58:12;;;;;;;2.83;1.52;;;;;22.60;102672.00;;;;5054624;28;20238;-77
2023/05/03 12:00:42;;;;;;;1.85;1.13;;;;;22.70;102671.00;;;;5057112;28;20203;-77
2023/05/03 12:03:10;;;;;;;1.42;1.02;;;;;22.70;102678.00;;;;5053077;28;20754;-77
2023/05/03 12:05:37;;;;;;;1.77;1.30;;;;;22.70;102668.00;;;;5068191;28;20207;-78
2023/05/03 12:08:05;;;;;;;1.92;1.10;;;;;22.80;102659.00;;;;5054252;28;20722;-78
2023/05/03 12:10:33;;;;;;;2.00;1.30;;;;;22.80;102656.00;;;;5064278;28;20213;-77
2023/05/03 12:13:01;;;;;;;1.92;1.20;;;;;22.80;102652.00;;;;5062535;28;20757;-77
2023/05/03 12:15:32;;;;;;;2.00;1.33;;;;;22.90;102643.00;;;;5065229;28;20234;-78
2023/05/03 12:18:01;;;;;;;2.22;1.23;;;;;22.90;102642.00;;;;5055811;28;20199;-78